Flight Track Log - Related Links

Times and Time Zones

All times are in EDT time to prevent confusion due to time zone crossing. See the N8440B flight status page for this flight to view local times or setup timezone preferences in your user account.

Time Position Orientation Groundspeed Altitude Reporting Facility
EDT Latitude Longitude Course Direction KTS MPH feet Rate Location/Type
Sun 03:49:14 PM 41.3244 -85.6867 74° East 94 108 4,500  Level Chicago Center
Sun 03:50:16 PM 41.3328 -85.6481 74° East 92 106 5,200 484 Climbing Chicago Center
Sun 03:51:18 PM 41.3394 -85.6128 76° East 94 108 5,500 145 Climbing Chicago Center
Sun 03:52:20 PM 41.3472 -85.5700 76° East 105 121 5,500  Level Chicago Center
Sun 03:53:00 PM 41.3350 -85.5669 74° East  Level Estimated
Sun 03:53:23 PM 41.3558 -85.5247 76° East 117 135 5,500  Level Chicago Center
Sun 03:54:00 PM 41.3450 -85.5214 74° East  Level Estimated
Sun 03:54:25 PM 41.3622 -85.4800 79° East 122 140 5,500  Level Chicago Center
Sun 03:55:27 PM 41.3697 -85.4258 80° East 124 143 5,500  Level Chicago Center
Sun 03:56:29 PM 41.3764 -85.3811 79° East 124 143 5,500  Level Chicago Center
Sun 03:57:31 PM 41.3819 -85.3347 81° East 126 145 5,500  Level Chicago Center
Sun 03:58:33 PM 41.3897 -85.2917 76° East 124 143 5,500  Level Chicago Center
Sun 03:59:35 PM 41.3961 -85.2478 79° East 122 140 5,500  Level Chicago Center
Sun 04:00:37 PM 41.4050 -85.1944 77° East 123 142 5,500  Level Chicago Center
Sun 04:01:39 PM 41.4156 -85.1514 72° East 123 142 5,500  Level Chicago Center
Sun 04:02:41 PM 41.4281 -85.1092 68° East 123 142 5,500  Level Chicago Center
Sun 04:03:43 PM 41.4411 -85.0683 67° East 122 140 5,500  Level Chicago Center
Sun 04:04:46 PM 41.4539 -85.0264 68° East 122 140 5,500  Level Chicago Center
Sun 04:05:48 PM 41.4675 -84.9839 67° East 124 143 5,500  Level Chicago Center
Sun 04:06:50 PM 41.4842 -84.9322 67° East 125 144 5,500  Level Chicago Center
Sun 04:07:52 PM 41.4967 -84.8906 68° East 124 143 5,500  Level Chicago Center
Sun 04:08:54 PM 41.5089 -84.8478 69° East 124 143 5,500  Level Chicago Center
Sun 04:09:56 PM 41.5164 -84.8044 77° East 123 142 5,500  Level Chicago Center
Sun 04:10:58 PM 41.5178 -84.7575 88° East 125 144 5,500  Level Chicago Center
Sun 04:12:00 PM 41.5197 -84.7036 87° East 123 142 5,500  Level Chicago Center
Sun 04:13:02 PM 41.5233 -84.6592 84° East 122 140 5,500  Level Chicago Center
Sun 04:14:04 PM 41.5283 -84.6161 81° East 120 138 5,500  Level Chicago Center
Sun 04:15:06 PM 41.5364 -84.5722 76° East 120 138 5,500  Level Chicago Center
Sun 04:16:08 PM 41.5478 -84.5306 70° East 120 138 5,500  Level Chicago Center
Sun 04:17:10 PM 41.5572 -84.4875 74° East 120 138 5,500 -144 Level Chicago Center
Sun 04:18:13 PM 41.5711 -84.4353 70° East 122 140 5,200 -192 Descending Chicago Center
Sun 04:19:15 PM 41.5842 -84.3919 68° East 124 143 5,100 -194 Descending Chicago Center
Sun 04:20:17 PM 41.5994 -84.3492 64° Northeast 126 145 4,800 -290 Descending Chicago Center

Login

Don't have an account? Register now (free) for customized features, flight alerts, and more!